createdAt,value
2022-08-10T00:00:40.594Z,16.63
2022-08-10T00:01:40.734Z,16.60
2022-08-10T00:02:40.579Z,16.59
2022-08-10T00:03:40.564Z,16.57
2022-08-10T00:04:40.553Z,16.57
2022-08-10T00:05:42.965Z,16.59
2022-08-10T00:06:40.528Z,16.57
2022-08-10T00:07:40.544Z,16.54
2022-08-10T00:08:40.508Z,16.51
2022-08-10T00:09:49.994Z,16.51
2022-08-10T00:10:40.502Z,16.48
2022-08-10T00:11:40.478Z,16.48
2022-08-10T00:12:54.737Z,16.44
2022-08-10T00:13:40.491Z,16.40
2022-08-10T00:14:40.450Z,16.36
2022-08-10T00:15:51.841Z,16.36
2022-08-10T00:16:40.436Z,16.32
2022-08-10T00:17:40.423Z,16.30
2022-08-10T00:18:40.408Z,16.30
2022-08-10T00:20:03.368Z,16.23
2022-08-10T00:20:40.398Z,16.22
2022-08-10T00:21:40.382Z,16.17
2022-08-10T00:22:57.593Z,16.16
2022-08-10T00:23:40.363Z,16.14
2022-08-10T00:24:43.194Z,16.13
2022-08-10T00:25:40.354Z,16.10
2022-08-10T00:27:51.974Z,16.06
2022-08-10T00:28:07.973Z,16.03
2022-08-10T00:28:40.302Z,15.99
2022-08-10T00:29:40.294Z,15.99
2022-08-10T00:30:40.304Z,15.99
2022-08-10T00:31:58.168Z,15.99
2022-08-10T00:32:40.269Z,16.03
2022-08-10T00:33:40.258Z,16.03
2022-08-10T00:34:40.237Z,16.04
2022-08-10T00:35:40.235Z,16.01
2022-08-10T00:36:40.244Z,15.99
2022-08-10T00:37:40.221Z,15.98
2022-08-10T00:38:40.197Z,15.95
2022-08-10T00:39:40.248Z,15.95
2022-08-10T00:40:40.216Z,15.92
2022-08-10T00:41:40.231Z,15.88
2022-08-10T00:42:40.155Z,15.86
2022-08-10T00:43:40.151Z,15.86
2022-08-10T00:44:40.148Z,15.85
2022-08-10T00:45:40.125Z,15.84
2022-08-10T00:46:40.108Z,15.81
2022-08-10T00:47:40.120Z,15.77
2022-08-10T00:48:40.121Z,15.73
2022-08-10T00:49:40.081Z,15.68
2022-08-10T00:50:40.068Z,15.71
2022-08-10T00:51:43.176Z,15.74
2022-08-10T00:52:40.051Z,15.74
2022-08-10T00:53:40.082Z,15.73
2022-08-10T00:54:40.051Z,15.70
2022-08-10T00:57:12.214Z,15.70
2022-08-10T00:57:21.791Z,15.68
2022-08-10T00:57:40.025Z,15.66
2022-08-10T00:58:39.987Z,15.59
2022-08-10T00:59:58.874Z,15.55
2022-08-10T01:00:39.969Z,15.52
2022-08-10T01:02:10.947Z,15.49
2022-08-10T01:02:40.292Z,15.49
2022-08-10T01:04:36.584Z,15.49
2022-08-10T01:05:05.075Z,15.52
2022-08-10T01:05:51.576Z,15.53
2022-08-10T01:06:39.904Z,15.51
2022-08-10T01:07:39.897Z,15.46
2022-08-10T01:08:39.878Z,15.43
2022-08-10T01:09:39.879Z,15.41
2022-08-10T01:10:39.876Z,15.40
2022-08-10T01:12:39.750Z,15.38
2022-08-10T01:12:52.452Z,15.37
2022-08-10T01:13:39.833Z,15.38
2022-08-10T01:14:39.816Z,15.35
2022-08-10T01:15:39.813Z,15.33
2022-08-10T01:16:39.792Z,15.34
2022-08-10T01:17:49.800Z,15.31
2022-08-10T01:18:39.774Z,15.30
2022-08-10T01:19:39.777Z,15.28
2022-08-10T01:20:39.750Z,15.25
2022-08-10T01:21:39.744Z,15.18
2022-08-10T01:22:39.753Z,15.13
2022-08-10T01:23:39.727Z,15.11
2022-08-10T01:24:39.710Z,15.13
2022-08-10T01:26:11.547Z,15.11
2022-08-10T01:26:40.720Z,15.09
2022-08-10T01:27:39.681Z,15.09
2022-08-10T01:28:39.690Z,15.05
2022-08-10T01:29:39.662Z,15.03
2022-08-10T01:30:39.678Z,15.00
2022-08-10T01:31:39.635Z,14.97
2022-08-10T01:32:39.649Z,14.97
2022-08-10T01:33:58.418Z,14.95
2022-08-10T01:34:39.612Z,14.97
2022-08-10T01:35:39.597Z,14.93
2022-08-10T01:36:39.583Z,14.94
2022-08-10T01:37:39.576Z,14.93
2022-08-10T01:38:39.559Z,14.93
2022-08-10T01:39:39.703Z,14.91
2022-08-10T01:40:39.541Z,14.85
2022-08-10T01:41:46.948Z,14.83
2022-08-10T01:42:39.538Z,14.83
2022-08-10T01:43:39.510Z,14.82
2022-08-10T01:44:39.501Z,14.82
2022-08-10T01:45:44.802Z,14.82
2022-08-10T01:46:39.489Z,14.80
2022-08-10T01:47:39.468Z,14.80
2022-08-10T01:48:39.461Z,14.78
2022-08-10T01:49:39.445Z,14.75
2022-08-10T01:50:53.222Z,14.71
2022-08-10T01:51:39.452Z,14.71
2022-08-10T01:52:39.415Z,14.66
2022-08-10T01:53:40.127Z,14.66
2022-08-10T01:54:39.401Z,14.64
2022-08-10T01:55:39.383Z,14.60
2022-08-10T01:56:39.373Z,14.57
2022-08-10T01:57:39.384Z,14.56
2022-08-10T01:58:39.351Z,14.57
2022-08-10T01:59:39.363Z,14.56
2022-08-10T02:00:39.336Z,14.54
2022-08-10T02:01:39.428Z,14.53
2022-08-10T02:02:39.308Z,14.53
2022-08-10T02:04:01.252Z,14.48
2022-08-10T02:04:39.300Z,14.44
2022-08-10T02:05:39.292Z,14.41
2022-08-10T02:06:39.263Z,14.38
2022-08-10T02:07:39.253Z,14.36
2022-08-10T02:08:39.241Z,14.35
2022-08-10T02:09:39.233Z,14.35
2022-08-10T02:10:39.246Z,14.34
2022-08-10T02:12:06.705Z,14.31
2022-08-10T02:12:39.207Z,14.30
2022-08-10T02:13:39.187Z,14.29
2022-08-10T02:14:39.177Z,14.23
2022-08-10T02:15:39.187Z,14.20
2022-08-10T02:16:39.164Z,14.19
2022-08-10T02:17:57.685Z,14.19
2022-08-10T02:18:39.141Z,14.16
2022-08-10T02:19:39.121Z,14.12
2022-08-10T02:20:39.137Z,14.11
2022-08-10T02:21:39.107Z,14.12
2022-08-10T02:22:41.806Z,14.12
2022-08-10T02:23:39.081Z,14.11
2022-08-10T02:24:39.070Z,14.09
2022-08-10T02:25:42.166Z,14.08
2022-08-10T02:26:39.073Z,14.09
2022-08-10T02:27:39.040Z,14.06
2022-08-10T02:28:39.031Z,14.06
2022-08-10T02:29:42.350Z,14.05
2022-08-10T02:30:39.009Z,14.01
2022-08-10T02:31:39.018Z,14.02
2022-08-10T02:32:39.026Z,14.01
2022-08-10T02:33:38.997Z,14.01
2022-08-10T02:34:38.992Z,13.98
2022-08-10T02:35:54.460Z,13.98
2022-08-10T02:36:38.949Z,13.98
2022-08-10T02:37:38.932Z,13.96
2022-08-10T02:38:59.359Z,13.93
2022-08-10T02:39:39.001Z,13.93
2022-08-10T02:45:14.469Z,13.90
2022-08-10T02:45:33.655Z,13.88
2022-08-10T02:45:39.488Z,13.79
2022-08-10T02:46:38.923Z,13.79
2022-08-10T02:47:51.511Z,13.76
2022-08-10T02:48:38.893Z,13.76
2022-08-10T02:49:38.887Z,13.73
2022-08-10T02:50:38.898Z,13.72
2022-08-10T02:52:07.105Z,13.71
2022-08-10T02:52:38.856Z,13.68
2022-08-10T02:53:49.356Z,13.69
2022-08-10T02:54:38.834Z,13.68
2022-08-10T02:55:38.825Z,13.66
2022-08-10T02:56:38.824Z,13.65
2022-08-10T02:57:38.794Z,13.66
2022-08-10T02:58:38.788Z,13.62
2022-08-10T02:59:40.278Z,13.59
2022-08-10T03:00:38.789Z,13.55
2022-08-10T03:01:38.847Z,13.55
2022-08-10T03:02:38.737Z,13.55
2022-08-10T03:03:38.730Z,13.55
2022-08-10T03:04:55.888Z,13.54
2022-08-10T03:05:38.717Z,13.54
2022-08-10T03:06:38.696Z,13.54
2022-08-10T03:07:43.766Z,13.54
2022-08-10T03:08:38.679Z,13.54
2022-08-10T03:09:38.668Z,13.51
2022-08-10T03:10:39.740Z,13.54
2022-08-10T03:12:35.394Z,13.51
2022-08-10T03:12:42.642Z,13.48
2022-08-10T03:13:38.622Z,13.47
2022-08-10T03:14:38.609Z,13.46
2022-08-10T03:15:38.600Z,13.41
2022-08-10T03:16:38.588Z,13.41
2022-08-10T03:17:38.580Z,13.41
2022-08-10T03:18:38.587Z,13.41
2022-08-10T03:20:34.583Z,13.43
2022-08-10T03:20:43.720Z,13.39
2022-08-10T03:21:38.538Z,13.36
2022-08-10T03:22:38.525Z,13.35
2022-08-10T03:23:38.538Z,13.32
2022-08-10T03:24:38.530Z,13.32
2022-08-10T03:25:38.515Z,13.35
2022-08-10T03:26:38.483Z,13.35
2022-08-10T03:27:38.481Z,13.32
2022-08-10T03:28:38.466Z,13.32
2022-08-10T03:30:28.563Z,13.29
2022-08-10T03:30:38.400Z,13.28
2022-08-10T03:31:40.149Z,13.29
2022-08-10T03:32:38.363Z,13.27
2022-08-10T03:33:38.351Z,13.25
2022-08-10T03:34:38.343Z,13.22
2022-08-10T03:35:38.352Z,13.22
2022-08-10T03:36:43.890Z,13.21
2022-08-10T03:37:38.318Z,13.19
2022-08-10T03:38:38.302Z,13.19
2022-08-10T03:39:38.379Z,13.17
2022-08-10T03:40:45.552Z,13.17
2022-08-10T03:41:38.304Z,13.16
2022-08-10T03:42:38.266Z,13.14
2022-08-10T03:43:38.255Z,13.16
2022-08-10T03:44:38.234Z,13.13
2022-08-10T03:45:54.357Z,13.12
2022-08-10T03:46:38.218Z,13.10
2022-08-10T03:47:38.222Z,13.06
2022-08-10T03:48:49.034Z,13.03
2022-08-10T03:49:38.189Z,13.01
2022-08-10T03:50:50.997Z,13.01
2022-08-10T03:51:38.169Z,12.98
2022-08-10T03:52:38.150Z,12.95
2022-08-10T03:54:04.538Z,12.92
2022-08-10T03:54:38.155Z,12.91
2022-08-10T03:56:28.672Z,12.91
2022-08-10T03:56:38.114Z,12.91
2022-08-10T03:57:41.842Z,12.92
2022-08-10T03:58:38.091Z,12.91
2022-08-10T03:59:38.100Z,12.89
2022-08-10T04:00:38.084Z,12.88
2022-08-10T04:02:45.176Z,12.88
2022-08-10T04:02:53.204Z,12.84
2022-08-10T04:03:38.037Z,12.84
2022-08-10T04:04:38.028Z,12.84
2022-08-10T04:05:39.027Z,12.81
2022-08-10T04:06:38.001Z,12.81
2022-08-10T04:07:37.993Z,12.81
2022-08-10T04:08:37.977Z,12.81
2022-08-10T04:09:53.560Z,12.81
2022-08-10T04:10:37.971Z,12.84
2022-08-10T04:11:37.981Z,12.85
2022-08-10T04:12:37.934Z,12.84
2022-08-10T04:13:37.930Z,12.80
2022-08-10T04:14:51.072Z,12.76
2022-08-10T04:15:37.917Z,12.77
2022-08-10T04:16:37.905Z,12.76
2022-08-10T04:17:57.213Z,12.74
2022-08-10T04:18:37.894Z,12.74
2022-08-10T04:19:37.864Z,12.73
2022-08-10T04:20:37.852Z,12.73
2022-08-10T04:21:37.846Z,12.71
2022-08-10T04:22:37.940Z,12.71
2022-08-10T04:23:37.842Z,12.70
2022-08-10T04:24:37.808Z,12.71
2022-08-10T04:25:37.803Z,12.69
2022-08-10T04:26:37.786Z,12.67
2022-08-10T04:27:37.778Z,12.70
2022-08-10T04:28:37.780Z,12.69
2022-08-10T04:29:37.755Z,12.67
2022-08-10T04:30:37.740Z,12.67
2022-08-10T04:31:37.736Z,12.63
2022-08-10T04:32:37.878Z,12.66
2022-08-10T04:33:37.742Z,12.62
2022-08-10T04:34:37.734Z,12.63
2022-08-10T04:35:37.691Z,12.62
2022-08-10T04:36:37.685Z,12.67
2022-08-10T04:37:37.672Z,12.62
2022-08-10T04:38:37.675Z,12.63
2022-08-10T04:39:37.710Z,12.63
2022-08-10T04:40:37.655Z,12.63
2022-08-10T04:41:37.627Z,12.66
2022-08-10T04:42:37.623Z,12.63
2022-08-10T04:43:37.611Z,12.63
2022-08-10T04:44:37.596Z,12.70
2022-08-10T04:45:47.632Z,12.70
2022-08-10T04:46:55.389Z,12.71
2022-08-10T04:48:00.613Z,12.73
2022-08-10T04:48:43.530Z,12.79
2022-08-10T04:49:56.390Z,12.81
2022-08-10T04:50:37.541Z,12.85
2022-08-10T04:51:37.525Z,12.87
2022-08-10T04:52:37.531Z,12.88
2022-08-10T04:54:04.136Z,12.91
2022-08-10T04:54:37.494Z,12.92
2022-08-10T04:55:37.486Z,12.94
2022-08-10T04:56:37.605Z,12.94
2022-08-10T04:57:37.462Z,12.94
2022-08-10T04:58:37.472Z,12.98
2022-08-10T04:59:37.440Z,12.99
2022-08-10T05:00:37.478Z,12.99
2022-08-10T05:02:22.724Z,13.01
2022-08-10T05:02:37.410Z,13.01
2022-08-10T05:04:36.395Z,13.06
2022-08-10T05:04:43.713Z,13.06
2022-08-10T05:05:37.376Z,13.07
2022-08-10T05:06:37.361Z,13.06
2022-08-10T05:07:53.754Z,13.07
2022-08-10T05:08:37.347Z,13.12
2022-08-10T05:10:03.402Z,13.13
2022-08-10T05:10:37.350Z,13.16
2022-08-10T05:11:37.312Z,13.17
2022-08-10T05:12:38.192Z,13.21
2022-08-10T05:13:37.294Z,13.21
2022-08-10T05:14:37.275Z,13.25
2022-08-10T05:15:37.269Z,13.27
2022-08-10T05:16:37.282Z,13.27
2022-08-10T05:17:37.254Z,13.27
2022-08-10T05:18:37.240Z,13.27
2022-08-10T05:20:03.099Z,13.31
2022-08-10T05:20:37.220Z,13.32
2022-08-10T05:22:02.997Z,13.39
2022-08-10T05:22:37.652Z,13.43
2022-08-10T05:23:37.182Z,13.44
2022-08-10T05:24:37.179Z,13.46
2022-08-10T05:25:38.326Z,13.47
2022-08-10T05:26:55.133Z,13.48
2022-08-10T05:27:37.155Z,13.51
2022-08-10T05:28:37.125Z,13.55
2022-08-10T05:29:37.120Z,13.61
2022-08-10T05:30:37.133Z,13.63
2022-08-10T05:31:37.102Z,13.65
2022-08-10T05:32:56.163Z,13.68
2022-08-10T05:33:37.082Z,13.69
2022-08-10T05:34:37.065Z,13.69
2022-08-10T05:35:55.452Z,13.72
2022-08-10T05:36:37.047Z,13.75
2022-08-10T05:38:12.224Z,13.76
2022-08-10T05:38:37.057Z,13.83
2022-08-10T05:39:37.043Z,13.86
2022-08-10T05:40:37.004Z,13.88
2022-08-10T05:41:39.248Z,13.94
2022-08-10T05:42:37.200Z,13.96
2022-08-10T05:43:36.972Z,13.99
2022-08-10T05:44:36.980Z,14.05
2022-08-10T05:46:16.704Z,14.08
2022-08-10T05:46:36.946Z,14.11
2022-08-10T05:48:58.148Z,14.12
2022-08-10T05:49:04.914Z,14.16
2022-08-10T05:49:36.906Z,14.19
2022-08-10T05:50:36.917Z,14.21
2022-08-10T05:51:36.882Z,14.23
2022-08-10T05:52:37.135Z,14.26
2022-08-10T05:54:01.939Z,14.27
2022-08-10T05:54:36.860Z,14.29
2022-08-10T05:55:36.841Z,14.35
2022-08-10T05:56:56.893Z,14.39
2022-08-10T05:57:36.842Z,14.42
2022-08-10T05:58:36.803Z,14.45
2022-08-10T06:00:34.335Z,14.53
2022-08-10T06:00:49.802Z,14.61
2022-08-10T06:01:36.835Z,14.69
2022-08-10T06:02:36.770Z,14.78
2022-08-10T06:03:36.755Z,14.85
2022-08-10T06:04:36.764Z,14.90
2022-08-10T06:05:36.741Z,14.93
2022-08-10T06:06:36.723Z,14.95
2022-08-10T06:07:36.987Z,15.01
2022-08-10T06:08:36.703Z,15.04
2022-08-10T06:09:36.687Z,15.09
2022-08-10T06:10:36.841Z,15.13
2022-08-10T06:12:28.315Z,15.18
2022-08-10T06:12:53.393Z,15.20
2022-08-10T06:13:57.248Z,15.28
2022-08-10T06:14:36.645Z,15.33
2022-08-10T06:15:51.653Z,15.37
2022-08-10T06:16:36.638Z,15.43
2022-08-10T06:17:36.642Z,15.49
2022-08-10T06:18:36.623Z,15.56
2022-08-10T06:19:36.586Z,15.62
2022-08-10T06:20:36.577Z,15.68
2022-08-10T06:21:36.572Z,15.77
2022-08-10T06:22:36.710Z,15.84
2022-08-10T06:23:36.568Z,15.92
2022-08-10T06:24:36.538Z,15.95
2022-08-10T06:26:10.956Z,15.99
2022-08-10T06:26:36.530Z,16.03
2022-08-10T06:27:36.496Z,16.06
2022-08-10T06:28:36.500Z,16.08
2022-08-10T06:29:36.503Z,16.10
2022-08-10T06:30:36.472Z,16.13
2022-08-10T06:31:48.869Z,16.14
2022-08-10T06:32:36.710Z,16.17
2022-08-10T06:33:36.434Z,16.18
2022-08-10T06:34:36.482Z,16.22
2022-08-10T06:35:36.416Z,16.27
2022-08-10T06:36:36.415Z,16.30
2022-08-10T06:37:36.391Z,16.32
2022-08-10T06:38:36.389Z,16.36
2022-08-10T06:39:37.034Z,16.44
2022-08-10T06:40:36.386Z,16.48
2022-08-10T06:42:14.230Z,16.55
2022-08-10T06:42:36.523Z,16.63
2022-08-10T06:43:36.334Z,16.67
2022-08-10T06:44:36.573Z,16.73
2022-08-10T06:45:36.351Z,16.78
2022-08-10T06:46:36.348Z,16.84
2022-08-10T06:47:36.347Z,16.88
2022-08-10T06:48:36.499Z,16.91
2022-08-10T06:49:36.300Z,16.96
2022-08-10T06:50:56.046Z,17.00
2022-08-10T06:51:36.284Z,17.03
2022-08-10T06:52:36.388Z,17.07
2022-08-10T06:53:53.061Z,17.12
2022-08-10T06:54:36.227Z,17.15
2022-08-10T06:55:49.558Z,17.20
2022-08-10T06:56:41.449Z,17.24
2022-08-10T06:57:36.228Z,17.30
2022-08-10T06:58:36.192Z,17.36
2022-08-10T06:59:36.938Z,17.42
2022-08-10T07:00:36.197Z,17.43
2022-08-10T07:01:36.154Z,17.47
2022-08-10T07:02:36.292Z,17.51
2022-08-10T07:03:36.150Z,17.54
2022-08-10T07:04:36.120Z,17.55
2022-08-10T07:05:36.099Z,17.60
2022-08-10T07:06:36.144Z,17.68
2022-08-10T07:07:36.119Z,17.71
2022-08-10T07:08:36.091Z,17.76
2022-08-10T07:09:36.093Z,17.79
2022-08-10T07:10:46.080Z,17.81
2022-08-10T07:11:36.045Z,17.87
2022-08-10T07:12:36.344Z,17.89
2022-08-10T07:14:15.942Z,17.96
2022-08-10T07:14:36.025Z,18.01
2022-08-10T07:15:57.064Z,18.05
2022-08-10T07:16:35.999Z,18.13
2022-08-10T07:17:39.249Z,18.17
2022-08-10T07:18:35.974Z,18.20
2022-08-10T07:19:35.972Z,18.20
2022-08-10T07:20:35.982Z,18.25
2022-08-10T07:21:35.936Z,18.29
2022-08-10T07:23:26.911Z,18.36
2022-08-10T07:24:04.065Z,18.42
2022-08-10T07:24:36.330Z,18.46
2022-08-10T07:25:35.899Z,18.54
2022-08-10T07:26:35.912Z,18.60
2022-08-10T07:27:58.323Z,18.65
2022-08-10T07:28:35.872Z,18.68
2022-08-10T07:29:53.852Z,18.72
2022-08-10T07:30:35.867Z,18.74
2022-08-10T07:31:57.109Z,18.79
2022-08-10T07:32:36.010Z,18.79
2022-08-10T07:33:35.809Z,18.83
2022-08-10T07:34:35.835Z,18.89
2022-08-10T07:35:41.572Z,18.91
2022-08-10T07:36:35.792Z,18.97
2022-08-10T07:37:35.793Z,19.01
2022-08-10T07:38:35.763Z,19.05
2022-08-10T07:40:02.189Z,19.07
2022-08-10T07:40:35.887Z,19.09
2022-08-10T07:41:35.721Z,19.13
2022-08-10T07:42:35.945Z,19.16
2022-08-10T07:43:35.708Z,19.21
2022-08-10T07:44:35.700Z,19.24
2022-08-10T07:45:35.696Z,19.25
2022-08-10T07:46:35.673Z,19.30
2022-08-10T07:47:46.104Z,19.31
2022-08-10T07:48:35.678Z,19.38
2022-08-10T07:49:35.638Z,19.40
2022-08-10T07:50:36.005Z,19.42
2022-08-10T07:51:35.610Z,19.43
2022-08-10T07:52:35.769Z,19.46
2022-08-10T07:53:35.589Z,19.53
2022-08-10T07:54:35.608Z,19.55
2022-08-10T07:56:03.587Z,19.58
2022-08-10T07:56:48.489Z,19.62
2022-08-10T07:57:40.002Z,19.65
2022-08-10T07:58:35.541Z,19.70
2022-08-10T07:59:35.548Z,19.72
2022-08-10T08:00:35.518Z,19.76
2022-08-10T08:01:35.585Z,19.76
2022-08-10T08:02:35.846Z,19.76
2022-08-10T08:03:35.477Z,19.80
2022-08-10T08:04:35.498Z,19.86
2022-08-10T08:06:02.821Z,19.90
2022-08-10T08:06:35.516Z,19.98
2022-08-10T08:07:35.437Z,20.01
2022-08-10T08:08:35.428Z,20.05
2022-08-10T08:09:35.429Z,20.04
2022-08-10T08:10:35.413Z,20.04
2022-08-10T08:11:35.393Z,20.04
2022-08-10T08:12:37.246Z,20.08
2022-08-10T08:13:35.370Z,20.12
2022-08-10T08:14:35.361Z,20.12
2022-08-10T08:16:19.773Z,20.12
2022-08-10T08:16:35.353Z,20.12
2022-08-10T08:17:35.690Z,20.15
2022-08-10T08:18:37.036Z,20.20
2022-08-10T08:19:37.114Z,20.25
2022-08-10T08:20:35.300Z,20.26
2022-08-10T08:24:13.684Z,20.30
2022-08-10T08:24:36.436Z,20.34
2022-08-10T08:24:42.460Z,20.40
2022-08-10T08:25:41.717Z,20.40
2022-08-10T08:26:41.704Z,20.46
2022-08-10T08:27:41.696Z,20.48
2022-08-10T08:28:41.695Z,20.51
2022-08-10T08:29:41.708Z,20.57
2022-08-10T08:30:44.549Z,20.63
2022-08-10T08:32:01.224Z,20.72
2022-08-10T08:32:41.643Z,20.78
2022-08-10T08:33:42.895Z,20.81
2022-08-10T08:34:41.617Z,20.82
2022-08-10T08:35:41.632Z,20.83
2022-08-10T08:36:41.605Z,20.87
2022-08-10T08:38:31.055Z,20.91
2022-08-10T08:38:41.578Z,20.98
2022-08-10T08:39:41.690Z,21.05
2022-08-10T08:40:41.589Z,21.09
2022-08-10T08:41:41.564Z,21.15
2022-08-10T08:42:41.532Z,21.16
2022-08-10T08:43:41.527Z,21.22
2022-08-10T08:44:41.509Z,21.28
2022-08-10T08:45:49.145Z,21.31
2022-08-10T08:46:41.521Z,21.36
2022-08-10T08:48:04.720Z,21.37
2022-08-10T08:48:41.476Z,21.40
2022-08-10T08:50:05.748Z,21.43
2022-08-10T08:50:41.474Z,21.48
2022-08-10T08:52:07.825Z,21.53
2022-08-10T08:52:41.435Z,21.58
2022-08-10T08:54:02.314Z,21.63
2022-08-10T08:54:41.453Z,21.67
2022-08-10T08:56:03.520Z,21.67
2022-08-10T08:56:41.391Z,21.70
2022-08-10T08:57:50.080Z,21.70
2022-08-10T08:58:41.373Z,21.73
2022-08-10T08:59:41.357Z,21.70
2022-08-10T09:00:41.366Z,21.71
2022-08-10T09:01:41.637Z,21.79
2022-08-10T09:02:41.353Z,21.81
2022-08-10T09:03:41.316Z,21.82
2022-08-10T09:04:41.304Z,21.81
2022-08-10T09:05:58.670Z,21.81
2022-08-10T09:06:41.287Z,21.85
2022-08-10T09:08:00.350Z,21.86
2022-08-10T09:08:41.261Z,21.90
2022-08-10T09:09:41.257Z,21.91
2022-08-10T09:10:41.236Z,21.94
2022-08-10T09:11:41.229Z,21.94
2022-08-10T09:12:41.218Z,21.98
2022-08-10T09:13:41.236Z,22.01
2022-08-10T09:14:41.200Z,22.01
2022-08-10T09:15:41.707Z,22.02
2022-08-10T09:16:41.174Z,22.09
2022-08-10T09:17:41.189Z,22.15
2022-08-10T09:18:41.180Z,22.20
2022-08-10T09:19:41.145Z,22.26
2022-08-10T09:20:41.134Z,22.31
2022-08-10T09:21:52.351Z,22.41
2022-08-10T09:22:41.122Z,22.48
2022-08-10T09:24:04.118Z,22.56
2022-08-10T09:24:41.120Z,22.59
2022-08-10T09:25:41.082Z,22.64
2022-08-10T09:26:41.076Z,22.67
2022-08-10T09:27:43.190Z,22.75
2022-08-10T09:28:41.049Z,22.79
2022-08-10T09:29:41.055Z,22.84
2022-08-10T09:30:52.377Z,22.85
2022-08-10T09:31:41.027Z,22.93
2022-08-10T09:36:22.101Z,22.97
2022-08-10T09:36:35.657Z,23.01
2022-08-10T09:36:41.454Z,23.12
2022-08-10T09:38:01.472Z,23.15
2022-08-10T09:38:40.887Z,23.15
2022-08-10T09:40:06.906Z,23.15
2022-08-10T09:41:07.482Z,23.15
2022-08-10T09:41:40.997Z,23.16
2022-08-10T09:42:40.866Z,23.12
2022-08-10T09:43:40.825Z,23.15
2022-08-10T09:44:58.250Z,23.23
2022-08-10T09:45:40.813Z,23.31
2022-08-10T09:46:40.798Z,23.34
2022-08-10T09:48:02.484Z,23.37
2022-08-10T09:48:40.779Z,23.41
2022-08-10T09:49:59.709Z,23.44
2022-08-10T09:51:22.839Z,23.50
2022-08-10T09:51:47.524Z,23.49
2022-08-10T09:52:40.752Z,23.50
2022-08-10T09:53:40.718Z,23.54
2022-08-10T09:54:40.713Z,23.56
2022-08-10T09:56:18.606Z,23.67
2022-08-10T09:56:40.698Z,23.72
2022-08-10T09:57:44.313Z,23.81
2022-08-10T09:58:40.697Z,23.87
2022-08-10T10:00:00.248Z,23.93
2022-08-10T10:00:40.655Z,24.02
2022-08-10T10:02:03.158Z,24.08
2022-08-10T10:02:40.627Z,24.08
2022-08-10T10:03:40.715Z,24.12
2022-08-10T10:04:40.620Z,24.12
2022-08-10T10:05:40.592Z,24.12
2022-08-10T10:06:40.593Z,24.09
2022-08-10T10:07:40.575Z,24.05
2022-08-10T10:08:42.958Z,24.06
2022-08-10T10:09:40.570Z,24.15
2022-08-10T10:10:47.448Z,24.19
2022-08-10T10:11:40.587Z,24.23
2022-08-10T10:12:40.520Z,24.23
2022-08-10T10:13:54.658Z,24.26
2022-08-10T10:14:40.510Z,24.23
2022-08-10T10:15:40.490Z,24.21
2022-08-10T10:16:40.477Z,24.19
2022-08-10T10:17:40.521Z,24.21
2022-08-10T10:18:40.454Z,24.24
2022-08-10T10:19:41.072Z,24.30
2022-08-10T10:20:40.439Z,24.36
2022-08-10T10:21:55.703Z,24.44
2022-08-10T10:22:40.425Z,24.52
2022-08-10T10:23:40.423Z,24.53
2022-08-10T10:24:40.429Z,24.61
2022-08-10T10:25:50.608Z,24.67
2022-08-10T10:26:40.389Z,24.70
2022-08-10T10:27:40.356Z,24.74
2022-08-10T10:29:15.094Z,24.74
2022-08-10T10:29:56.224Z,24.70
2022-08-10T10:30:40.355Z,24.82
2022-08-10T10:31:40.337Z,24.90
2022-08-10T10:32:40.309Z,24.92
2022-08-10T10:33:40.339Z,24.98
2022-08-10T10:34:40.311Z,25.08
2022-08-10T10:35:40.340Z,25.19
2022-08-10T10:36:40.272Z,25.27
2022-08-10T10:38:02.263Z,25.35
2022-08-10T10:38:40.257Z,25.44
2022-08-10T10:39:40.318Z,25.49
2022-08-10T10:40:40.228Z,25.53
2022-08-10T10:42:03.974Z,25.60
2022-08-10T10:42:45.286Z,25.63
2022-08-10T10:43:40.194Z,25.71
2022-08-10T10:44:42.296Z,25.81
2022-08-10T10:45:50.614Z,25.91
2022-08-10T10:46:40.167Z,26.03
2022-08-10T10:47:40.168Z,26.20
2022-08-10T10:48:40.137Z,26.32
2022-08-10T10:49:40.125Z,26.49
2022-08-10T10:50:40.118Z,26.66
2022-08-10T10:51:40.131Z,26.83
2022-08-10T10:52:40.100Z,27.09
2022-08-10T10:53:40.089Z,27.45
2022-08-10T10:54:40.077Z,27.98
2022-08-10T10:56:14.137Z,28.65
2022-08-10T10:56:40.066Z,29.49
2022-08-10T10:57:58.451Z,30.23
2022-08-10T10:58:40.038Z,30.83
2022-08-10T10:59:55.788Z,31.32
2022-08-10T11:00:40.021Z,31.92
2022-08-10T11:01:40.038Z,32.35
2022-08-10T11:02:40.008Z,32.93
2022-08-10T11:03:39.978Z,33.40
2022-08-10T11:04:39.971Z,33.77
2022-08-10T11:05:39.982Z,34.23
2022-08-10T11:06:40.853Z,34.37
2022-08-10T11:07:39.932Z,34.69
2022-08-10T11:08:39.934Z,35.10
2022-08-10T11:10:03.747Z,35.50
2022-08-10T11:10:46.913Z,35.65
2022-08-10T11:12:00.478Z,35.92
2022-08-10T11:12:43.617Z,36.23
2022-08-10T11:14:27.302Z,36.48
2022-08-10T11:14:39.878Z,36.87
2022-08-10T11:15:42.882Z,37.21
2022-08-10T11:16:39.857Z,37.42
2022-08-10T11:17:39.837Z,37.40
2022-08-10T11:18:39.893Z,37.46
2022-08-10T11:20:02.976Z,37.21
2022-08-10T11:20:39.845Z,37.33
2022-08-10T11:21:39.800Z,37.59
2022-08-10T11:22:39.795Z,37.82
2022-08-10T11:23:39.792Z,37.93
2022-08-10T11:24:46.817Z,38.06
2022-08-10T11:25:39.769Z,38.21
2022-08-10T11:26:39.778Z,38.34
2022-08-10T11:27:39.763Z,38.67
2022-08-10T11:28:39.742Z,38.97
2022-08-10T11:29:43.909Z,39.17
2022-08-10T11:30:39.751Z,39.19
2022-08-10T11:31:39.714Z,39.47
2022-08-10T11:32:39.710Z,39.73
2022-08-10T11:34:04.170Z,39.88
2022-08-10T11:35:11.117Z,40.09
2022-08-10T11:35:39.691Z,40.11
2022-08-10T11:36:39.677Z,40.22
2022-08-10T11:38:31.469Z,40.53
2022-08-10T11:39:04.080Z,40.56
2022-08-10T11:39:48.861Z,40.75
2022-08-10T11:40:39.675Z,41.04
2022-08-10T11:42:11.933Z,41.28
2022-08-10T11:42:39.636Z,41.46
2022-08-10T11:43:39.620Z,41.69
2022-08-10T11:44:39.621Z,41.97
2022-08-10T11:45:52.037Z,42.39
2022-08-10T11:46:39.629Z,42.71
2022-08-10T11:47:39.610Z,43.03
2022-08-10T11:48:53.357Z,43.22
2022-08-10T11:49:39.584Z,43.40
2022-08-10T11:50:39.597Z,43.53
2022-08-10T11:51:39.562Z,43.71
2022-08-10T11:52:39.561Z,43.45
2022-08-10T11:53:39.557Z,43.20
2022-08-10T11:54:39.547Z,43.06
2022-08-10T11:55:39.655Z,43.01
2022-08-10T11:56:39.559Z,43.14
2022-08-10T11:58:00.820Z,43.37
2022-08-10T11:58:39.528Z,43.62
2022-08-10T11:59:39.524Z,43.91
2022-08-10T12:00:39.531Z,44.02
2022-08-10T12:01:39.521Z,44.08
2022-08-10T12:02:39.939Z,44.08
2022-08-10T12:03:39.494Z,44.37
2022-08-10T12:04:39.483Z,44.92
2022-08-10T12:05:52.181Z,45.27
2022-08-10T12:06:54.768Z,45.39
2022-08-10T12:08:10.365Z,45.64
2022-08-10T12:10:13.955Z,45.69
2022-08-10T12:10:19.202Z,45.72
2022-08-10T12:11:24.747Z,45.91
2022-08-10T12:12:19.196Z,46.21
2022-08-10T12:13:19.151Z,46.49
2022-08-10T12:14:22.185Z,46.74
2022-08-10T12:15:19.140Z,46.77
2022-08-10T12:16:19.157Z,46.75
2022-08-10T12:17:19.131Z,46.72
2022-08-10T12:18:19.176Z,46.89
2022-08-10T12:19:19.120Z,46.98
2022-08-10T12:20:19.125Z,46.79
2022-08-10T12:21:21.817Z,46.61
2022-08-10T12:22:19.131Z,46.52
2022-08-10T12:23:19.108Z,46.19
2022-08-10T12:24:19.093Z,46.45
2022-08-10T12:25:55.646Z,46.82
2022-08-10T12:26:19.096Z,46.75
2022-08-10T12:27:19.078Z,46.90
2022-08-10T12:28:19.103Z,47.18
2022-08-10T12:29:22.391Z,47.28
2022-08-10T12:30:19.060Z,47.64
2022-08-10T12:31:19.052Z,47.40
2022-08-10T12:32:35.182Z,47.51
2022-08-10T12:33:19.073Z,47.71
2022-08-10T12:34:19.037Z,47.34
2022-08-10T12:35:22.803Z,46.91
2022-08-10T12:36:19.092Z,46.64
2022-08-10T12:37:19.073Z,46.72
2022-08-10T12:38:19.023Z,46.94
2022-08-10T12:39:19.124Z,47.08
2022-08-10T12:40:36.106Z,47.18
2022-08-10T12:41:19.021Z,47.57
2022-08-10T12:43:13.394Z,47.59
2022-08-10T12:44:09.130Z,47.57
2022-08-10T12:44:19.017Z,47.72
2022-08-10T12:45:18.994Z,47.72
2022-08-10T12:46:19.003Z,47.54
2022-08-10T12:47:19.042Z,47.63
2022-08-10T12:48:18.974Z,47.90
2022-08-10T12:49:18.975Z,48.28
2022-08-10T12:50:30.460Z,48.45
2022-08-10T12:51:18.989Z,48.74
2022-08-10T12:52:18.959Z,48.67
2022-08-10T12:53:19.059Z,48.72
2022-08-10T12:54:31.404Z,48.51
2022-08-10T12:55:18.955Z,47.90
2022-08-10T12:56:19.021Z,47.64
2022-08-10T12:57:18.967Z,47.40
2022-08-10T12:58:59.194Z,47.47
2022-08-10T12:59:19.000Z,47.71